Time;durP1;ratioP1;P1;durP2;ratioP2;P2;SDS_P1;SDS_P2;PMS_P1;PMS_P2;Temp;Humidity;BMP_temperature;BMP_pressure;BME280_temperature;BME280_humidity;BME280_pressure;Samples;Min_cycle;Max_cycle;Signal;HPM_P1;HPM_P2
2022/05/29 00:00:49;;;;;;;6.23;3.87;;;8.20;99.90;;;;;;5098498;28;20566;-68
2022/05/29 00:03:15;;;;;;;7.83;4.03;;;8.20;99.90;;;;;;5116945;28;20169;-65
2022/05/29 00:05:42;;;;;;;6.23;3.67;;;8.20;99.90;;;;;;5116985;28;20180;-66
2022/05/29 00:08:15;;;;;;;8.27;3.83;;;8.10;99.90;;;;;;5116426;28;20551;-65
2022/05/29 00:10:42;;;;;;;5.80;3.70;;;8.10;99.90;;;;;;5098432;28;20200;-65
2022/05/29 00:13:11;;;;;;;6.73;3.60;;;8.10;99.90;;;;;;5116649;28;20191;-65
2022/05/29 00:15:38;;;;;;;5.67;3.80;;;8.10;99.90;;;;;;5116470;28;20188;-66
2022/05/29 00:18:05;;;;;;;7.30;4.27;;;8.00;99.90;;;;;;5116738;28;20655;-65
2022/05/29 00:20:31;;;;;;;4.37;3.53;;;7.90;99.90;;;;;;5116401;28;20196;-65
2022/05/29 00:22:57;;;;;;;9.13;4.33;;;7.80;99.90;;;;;;5097875;28;20179;-65
2022/05/29 00:25:23;;;;;;;7.83;3.77;;;7.80;99.90;;;;;;5116405;28;20173;-66
2022/05/29 00:27:49;;;;;;;5.20;3.60;;;7.70;99.90;;;;;;5116631;28;20271;-65
2022/05/29 00:30:14;;;;;;;6.87;3.73;;;7.70;99.90;;;;;;5116427;28;20237;-65
2022/05/29 00:32:40;;;;;;;8.47;3.83;;;7.70;99.90;;;;;;5116843;28;20169;-65
2022/05/29 00:35:06;;;;;;;4.47;3.50;;;7.70;99.90;;;;;;5116431;28;20173;-65
2022/05/29 00:37:38;;;;;;;7.67;4.07;;;7.60;99.90;;;;;;5115816;28;20192;-65
2022/05/29 00:40:31;;;;;;;5.23;3.70;;;7.50;99.90;;;;;;5116069;28;20244;-66
2022/05/29 00:42:56;;;;;;;7.47;3.70;;;7.60;99.90;;;;;;5115157;28;20188;-65
2022/05/29 00:45:23;;;;;;;7.80;4.23;;;7.50;99.90;;;;;;5115954;28;20200;-65
2022/05/29 00:47:49;;;;;;;4.77;3.73;;;7.50;99.90;;;;;;5115884;28;20289;-65
2022/05/29 00:50:20;;;;;;;6.80;3.83;;;7.50;99.90;;;;;;5115661;28;20228;-66
2022/05/29 00:52:46;;;;;;;5.97;4.17;;;7.50;99.90;;;;;;5115602;28;20165;-66
2022/05/29 00:55:24;;;;;;;8.07;3.53;;;7.40;99.90;;;;;;5115813;28;20179;-65
2022/05/29 00:58:00;;;;;;;7.40;3.90;;;7.50;99.90;;;;;;5115660;28;20203;-65
2022/05/29 01:00:28;;;;;;;9.90;4.07;;;7.50;99.90;;;;;;5115808;28;20203;-65
2022/05/29 01:03:00;;;;;;;4.97;3.83;;;7.50;99.90;;;;;;5115780;28;20618;-68
2022/05/29 01:05:29;;;;;;;7.00;3.87;;;7.50;99.90;;;;;;5116016;28;20244;-68
2022/05/29 01:08:03;;;;;;;5.47;4.00;;;7.40;99.90;;;;;;5115203;28;20180;-68
2022/05/29 01:10:40;;;;;;;8.47;3.90;;;7.40;99.90;;;;;;5115498;28;20196;-68
2022/05/29 01:13:25;;;;;;;9.43;4.17;;;7.40;99.90;;;;;;5115554;28;20636;-68
2022/05/29 01:16:18;;;;;;;7.17;4.13;;;7.40;99.90;;;;;;5115910;28;20249;-68
2022/05/29 01:19:00;;;;;;;7.83;3.87;;;7.40;99.90;;;;;;5115187;28;20161;-68
2022/05/29 01:22:03;;;;;;;9.53;4.27;;;7.40;99.90;;;;;;5115140;28;20681;-68
2022/05/29 01:25:13;;;;;;;10.80;4.83;;;7.40;99.90;;;;;;5063357;28;20563;-68
2022/05/29 01:27:59;;;;;;;5.07;3.90;;;7.30;99.90;;;;;;5115543;28;20241;-68
2022/05/29 01:30:29;;;;;;;6.70;4.20;;;7.30;99.90;;;;;;5115072;28;20214;-68
2022/05/29 01:33:27;;;;;;;8.60;4.33;;;7.20;99.90;;;;;;5115183;28;20533;-68
2022/05/29 01:36:11;;;;;;;9.33;4.00;;;7.20;99.90;;;;;;5114818;28;20179;-68
2022/05/29 01:38:54;;;;;;;10.37;3.90;;;7.20;99.90;;;;;;5114721;28;20180;-68
2022/05/29 01:41:33;;;;;;;8.27;3.83;;;7.20;99.90;;;;;;5115123;28;20165;-68
2022/05/29 01:44:12;;;;;;;7.53;4.17;;;7.20;99.90;;;;;;5115150;28;20518;-68
2022/05/29 01:46:38;;;;;;;5.30;4.03;;;7.20;99.90;;;;;;5115317;28;20632;-68
2022/05/29 01:49:32;;;;;;;5.80;3.73;;;7.30;99.90;;;;;;5114809;28;20188;-67
2022/05/29 01:52:17;;;;;;;6.17;4.43;;;7.20;99.90;;;;;;5096943;28;20534;-67
2022/05/29 01:55:03;;;;;;;8.53;4.20;;;7.10;99.90;;;;;;5115017;28;20705;-67
2022/05/29 01:57:42;;;;;;;4.73;3.77;;;7.10;99.90;;;;;;5114809;28;20212;-67
2022/05/29 02:00:17;;;;;;;5.67;4.00;;;7.20;99.90;;;;;;5114475;28;20184;-68
2022/05/29 02:03:04;;;;;;;6.53;4.17;;;7.30;99.90;;;;;;5114672;28;20156;-67
2022/05/29 02:05:37;;;;;;;8.20;4.30;;;7.30;99.90;;;;;;5114801;28;20156;-68
2022/05/29 02:08:21;;;;;;;9.30;4.20;;;7.30;99.90;;;;;;5114132;28;20180;-67
2022/05/29 02:10:55;;;;;;;10.00;5.10;;;7.20;99.90;;;;;;5114274;28;20564;-68
2022/05/29 02:13:37;;;;;;;4.57;3.80;;;7.30;99.90;;;;;;5114174;28;20176;-69
2022/05/29 02:16:08;;;;;;;6.63;4.13;;;7.30;99.90;;;;;;5114594;28;20175;-68
2022/05/29 02:18:36;;;;;;;6.27;3.90;;;7.30;99.90;;;;;;5114452;28;20251;-68
2022/05/29 02:21:10;;;;;;;4.80;4.00;;;7.30;99.90;;;;;;5114323;28;20164;-68
2022/05/29 02:23:41;;;;;;;6.80;4.13;;;7.30;99.90;;;;;;5113920;28;20515;-68
2022/05/29 02:26:11;;;;;;;8.87;4.27;;;7.30;99.90;;;;;;5114366;28;20168;-68
2022/05/29 02:28:44;;;;;;;6.00;4.33;;;7.40;99.90;;;;;;5114298;28;20149;-67
2022/05/29 02:31:21;;;;;;;8.03;4.07;;;7.40;99.90;;;;;;5113998;28;20244;-68
2022/05/29 02:33:56;;;;;;;9.47;4.33;;;7.40;99.90;;;;;;5114024;28;20236;-68
2022/05/29 02:36:57;;;;;;;8.60;4.30;;;7.30;99.90;;;;;;5113941;28;20184;-67
2022/05/29 02:39:27;;;;;;;8.47;4.60;;;7.30;99.90;;;;;;5113578;28;20200;-68
2022/05/29 02:42:28;;;;;;;11.47;4.57;;;7.30;99.90;;;;;;5095549;28;20169;-68
2022/05/29 02:45:06;;;;;;;8.23;4.50;;;7.30;99.90;;;;;;5091743;28;20263;-68
2022/05/29 02:47:39;;;;;;;7.23;4.20;;;7.30;99.90;;;;;;5113823;28;20649;-68
2022/05/29 02:50:23;;;;;;;8.87;4.03;;;7.30;99.90;;;;;;5113732;28;20681;-68
2022/05/29 02:52:51;;;;;;;7.83;4.53;;;7.30;99.90;;;;;;5113814;28;20573;-68
2022/05/29 02:55:18;;;;;;;5.10;4.30;;;7.20;99.90;;;;;;5114127;28;20172;-68
2022/05/29 02:57:45;;;;;;;10.97;4.80;;;7.20;99.90;;;;;;5113632;28;20235;-68
2022/05/29 03:00:12;;;;;;;6.97;4.40;;;7.20;99.90;;;;;;5095321;28;20213;-68
2022/05/29 03:03:33;;;;;;;11.00;4.10;;;7.20;99.90;;;;;;5113991;28;20518;-68
2022/05/29 03:06:26;;;;;;;6.83;4.60;;;7.20;99.90;;;;;;5036209;28;20184;-68
2022/05/29 03:09:09;;;;;;;8.40;4.83;;;7.30;99.90;;;;;;5117820;28;20196;-68
2022/05/29 03:11:44;;;;;;;8.73;4.70;;;7.30;99.90;;;;;;5099410;28;20217;-68
2022/05/29 03:14:28;;;;;;;5.97;4.33;;;7.30;99.90;;;;;;5099177;28;20222;-68
2022/05/29 03:17:06;;;;;;;7.33;4.63;;;7.40;99.90;;;;;;5117474;28;20192;-68
2022/05/29 03:19:41;;;;;;;9.60;4.73;;;7.40;99.90;;;;;;5117725;28;20271;-68
2022/05/29 03:22:22;;;;;;;9.20;4.90;;;7.40;99.90;;;;;;5117210;28;20152;-68
2022/05/29 03:25:00;;;;;;;9.93;5.00;;;7.40;99.90;;;;;;5117538;28;20245;-68
2022/05/29 03:27:37;;;;;;;7.40;5.03;;;7.40;99.90;;;;;;5117660;28;20643;-68
2022/05/29 03:30:17;;;;;;;9.97;5.20;;;7.50;99.90;;;;;;5117205;28;20192;-68
2022/05/29 03:32:43;;;;;;;10.10;5.23;;;7.50;99.90;;;;;;5098984;28;20553;-68
2022/05/29 03:35:26;;;;;;;12.47;5.30;;;7.50;99.90;;;;;;5117116;28;20169;-68
2022/05/29 03:37:53;;;;;;;6.20;4.87;;;7.40;99.90;;;;;;5098632;28;20226;-68
2022/05/29 03:40:20;;;;;;;7.10;5.20;;;7.40;99.90;;;;;;5117015;28;20202;-68
2022/05/29 03:42:46;;;;;;;11.10;4.97;;;7.40;99.90;;;;;;5117179;28;20176;-68
2022/05/29 03:45:12;;;;;;;9.10;5.13;;;7.40;99.90;;;;;;5116970;28;20168;-68
2022/05/29 03:47:39;;;;;;;14.60;5.60;;;7.40;99.90;;;;;;5117619;28;20622;-68
2022/05/29 03:50:07;;;;;;;9.17;5.30;;;7.30;99.90;;;;;;5116781;28;20194;-68
2022/05/29 03:52:34;;;;;;;10.07;6.00;;;7.20;99.90;;;;;;5116683;28;20176;-68
2022/05/29 03:55:00;;;;;;;10.67;6.37;;;7.20;99.90;;;;;;5117070;28;20701;-68
2022/05/29 03:57:26;;;;;;;9.40;5.60;;;7.20;99.90;;;;;;5116973;28;20215;-68
2022/05/29 03:59:52;;;;;;;10.73;5.77;;;7.20;99.90;;;;;;5116909;28;20193;-68
2022/05/29 04:02:18;;;;;;;9.77;5.80;;;7.20;99.90;;;;;;5098512;28;20176;-67
2022/05/29 04:04:44;;;;;;;10.77;5.33;;;7.10;99.90;;;;;;5116569;28;20172;-67
2022/05/29 04:07:10;;;;;;;11.77;5.87;;;7.10;99.90;;;;;;5116367;28;20269;-67
2022/05/29 04:12:20;;;;;;;8.33;5.70;;;7.10;99.90;;;;;;5116822;28;20229;-67
2022/05/29 04:14:45;;;;;;;11.47;5.83;;;7.10;99.90;;;;;;5116513;28;20645;-68
2022/05/29 04:17:17;;;;;;;12.47;5.87;;;7.10;99.90;;;;;;5115379;28;20212;-68
2022/05/29 04:19:44;;;;;;;10.40;6.20;;;7.10;99.90;;;;;;5097833;28;20279;-67
2022/05/29 04:22:16;;;;;;;9.17;5.70;;;7.10;99.90;;;;;;5116113;28;20161;-68
2022/05/29 04:24:42;;;;;;;9.37;5.50;;;7.10;99.90;;;;;;5116514;28;20189;-68
2022/05/29 04:27:10;;;;;;;9.87;5.70;;;7.20;99.90;;;;;;5116417;28;20710;-68
2022/05/29 04:29:36;;;;;;;9.10;6.23;;;7.30;99.90;;;;;;5116083;28;20657;-67
2022/05/29 04:34:46;;;;;;;11.50;5.97;;;7.40;99.90;;;;;;5116164;28;20164;-68
2022/05/29 04:37:11;;;;;;;10.00;6.50;;;7.40;99.90;;;;;;5116217;28;20203;-67
2022/05/29 04:39:37;;;;;;;7.50;6.20;;;7.40;99.90;;;;;;5116295;28;20665;-68
2022/05/29 04:42:06;;;;;;;8.03;5.53;;;7.50;99.90;;;;;;5116057;28;20586;-68
2022/05/29 04:44:32;;;;;;;10.67;5.57;;;7.50;99.90;;;;;;5097686;28;20667;-68
2022/05/29 04:46:58;;;;;;;7.63;5.70;;;7.60;99.90;;;;;;5115929;28;20255;-68
2022/05/29 04:49:24;;;;;;;11.63;6.17;;;7.60;99.90;;;;;;5116005;28;20214;-68
2022/05/29 04:51:50;;;;;;;10.73;6.20;;;7.70;99.90;;;;;;5097230;28;20176;-68
2022/05/29 04:54:16;;;;;;;8.20;5.90;;;7.70;99.90;;;;;;5115764;28;20177;-68
2022/05/29 04:56:41;;;;;;;9.10;6.13;;;7.70;99.90;;;;;;5115761;28;20271;-68
2022/05/29 04:59:07;;;;;;;11.07;5.97;;;7.80;99.90;;;;;;5116232;28;20189;-68
2022/05/29 05:01:33;;;;;;;11.37;6.20;;;7.90;99.90;;;;;;5115779;28;20222;-67
2022/05/29 05:03:59;;;;;;;12.93;6.40;;;7.90;99.90;;;;;;5097488;28;20360;-68
2022/05/29 05:06:24;;;;;;;12.80;6.27;;;8.00;99.90;;;;;;5115839;28;20184;-68
2022/05/29 05:08:50;;;;;;;9.87;5.97;;;8.10;99.90;;;;;;5115404;28;20208;-68
2022/05/29 05:11:16;;;;;;;10.90;6.10;;;8.10;99.90;;;;;;5115661;28;20247;-68
2022/05/29 05:13:41;;;;;;;10.67;6.37;;;8.30;99.90;;;;;;5115621;28;20188;-69
2022/05/29 05:16:07;;;;;;;10.30;5.70;;;8.30;99.90;;;;;;5116198;28;20563;-68
2022/05/29 05:18:33;;;;;;;12.37;6.03;;;8.40;99.90;;;;;;5118725;28;20169;-66
2022/05/29 05:21:02;;;;;;;12.93;6.30;;;8.40;99.90;;;;;;5116439;28;20248;-68
2022/05/29 05:23:28;;;;;;;8.57;6.63;;;8.50;99.90;;;;;;5115830;28;20277;-66
2022/05/29 05:25:54;;;;;;;10.47;6.67;;;8.50;99.90;;;;;;5115621;28;20178;-65
2022/05/29 05:28:20;;;;;;;12.90;6.70;;;8.60;99.90;;;;;;5115381;28;20186;-65
2022/05/29 05:30:47;;;;;;;12.87;6.13;;;8.60;99.90;;;;;;5115747;28;20207;-66
2022/05/29 05:33:13;;;;;;;11.10;6.37;;;8.60;99.90;;;;;;5118085;28;20232;-66
2022/05/29 05:35:39;;;;;;;13.77;6.43;;;8.70;99.90;;;;;;5118454;28;20172;-65
2022/05/29 05:38:06;;;;;;;10.97;6.90;;;8.80;99.90;;;;;;5117222;28;20627;-65
2022/05/29 05:40:31;;;;;;;10.53;5.87;;;8.70;99.90;;;;;;5116261;28;20195;-65
2022/05/29 05:42:57;;;;;;;10.57;6.03;;;8.70;99.90;;;;;;5115630;28;20533;-65
2022/05/29 05:45:23;;;;;;;14.37;6.33;;;8.70;99.90;;;;;;5115568;28;20175;-66
2022/05/29 05:47:49;;;;;;;10.37;6.37;;;8.60;99.90;;;;;;5115125;28;20221;-65
2022/05/29 05:50:15;;;;;;;9.80;6.33;;;8.60;99.90;;;;;;5115242;28;20188;-65
2022/05/29 05:52:41;;;;;;;12.33;6.83;;;8.70;99.90;;;;;;5115070;28;20172;-65
2022/05/29 05:55:10;;;;;;;9.33;5.80;;;8.60;99.90;;;;;;5096782;28;20261;-65
2022/05/29 05:57:36;;;;;;;11.63;6.57;;;8.70;99.90;;;;;;5115134;28;20212;-65
2022/05/29 06:00:05;;;;;;;19.27;6.30;;;8.70;99.90;;;;;;5114917;28;20188;-65
2022/05/29 06:02:30;;;;;;;16.87;6.40;;;8.70;99.90;;;;;;5114664;28;20252;-65
2022/05/29 06:04:56;;;;;;;12.00;7.87;;;8.70;99.90;;;;;;5114948;28;20621;-65
2022/05/29 06:07:22;;;;;;;10.57;6.63;;;8.80;99.90;;;;;;5113970;28;20177;-65
2022/05/29 06:09:48;;;;;;;10.83;7.07;;;8.80;99.90;;;;;;5114379;28;20196;-65
2022/05/29 06:12:13;;;;;;;8.97;6.50;;;8.80;99.90;;;;;;5114387;28;20532;-65
2022/05/29 06:14:39;;;;;;;12.37;6.93;;;8.90;99.90;;;;;;5114398;28;20192;-65
2022/05/29 06:17:05;;;;;;;10.60;7.07;;;8.90;99.90;;;;;;5095870;28;20197;-65
2022/05/29 06:19:31;;;;;;;13.83;7.77;;;8.90;99.90;;;;;;5096130;28;20254;-73
2022/05/29 06:21:58;;;;;;;10.03;7.27;;;9.00;99.90;;;;;;5114401;28;20223;-66
2022/05/29 06:24:24;;;;;;;15.90;7.83;;;8.90;99.90;;;;;;5114658;28;20169;-65
2022/05/29 06:26:49;;;;;;;9.50;7.23;;;8.90;99.90;;;;;;5114030;28;20637;-65
2022/05/29 06:29:15;;;;;;;13.03;7.77;;;8.90;99.90;;;;;;5114193;28;20192;-65
2022/05/29 06:31:41;;;;;;;12.30;7.67;;;8.90;99.90;;;;;;5113966;28;20198;-65
2022/05/29 06:34:06;;;;;;;16.83;9.87;;;8.90;99.90;;;;;;5114162;28;20236;-65
2022/05/29 06:36:32;;;;;;;17.03;9.70;;;8.90;99.90;;;;;;5114146;28;20204;-65
2022/05/29 06:38:59;;;;;;;16.73;10.90;;;9.00;99.90;;;;;;5113366;28;20207;-65
2022/05/29 06:41:26;;;;;;;15.10;10.70;;;9.10;99.90;;;;;;5113355;28;20542;-65
2022/05/29 06:43:52;;;;;;;18.50;11.77;;;9.20;99.90;;;;;;5114012;28;20172;-65
2022/05/29 06:46:19;;;;;;;14.93;10.77;;;9.30;99.90;;;;;;5113811;28;20174;-65
2022/05/29 06:48:45;;;;;;;17.73;10.93;;;9.30;99.90;;;;;;5113724;28;20291;-65
2022/05/29 06:51:19;;;;;;;16.27;10.70;;;9.30;99.90;;;;;;5114178;28;20593;-65
2022/05/29 06:53:45;;;;;;;13.63;10.73;;;9.40;99.90;;;;;;5095607;28;20174;-68
2022/05/29 06:56:12;;;;;;;16.70;10.93;;;9.40;99.90;;;;;;5096296;28;20184;-69
2022/05/29 06:58:38;;;;;;;15.10;10.80;;;9.60;99.90;;;;;;5095892;28;20172;-63
2022/05/29 07:09:22;;;;;;;19.80;11.07;;;9.60;99.90;;;;;;5113502;28;20330;-65
2022/05/29 07:11:51;;;;;;;16.77;10.77;;;9.60;99.90;;;;;;5113623;28;20235;-65
2022/05/29 07:14:17;;;;;;;13.87;9.33;;;9.70;99.90;;;;;;5113652;28;20193;-65
2022/05/29 07:16:44;;;;;;;15.50;10.50;;;9.80;99.90;;;;;;5113374;28;20207;-65
2022/05/29 07:19:11;;;;;;;14.67;11.10;;;9.90;99.90;;;;;;5113459;28;20563;-65
2022/05/29 07:21:38;;;;;;;15.83;10.37;;;9.90;99.90;;;;;;5113477;28;20176;-65
2022/05/29 07:24:05;;;;;;;18.80;10.97;;;10.10;99.90;;;;;;5113482;28;20255;-65
2022/05/29 07:26:31;;;;;;;15.17;11.03;;;10.10;99.90;;;;;;5113570;28;20551;-65
2022/05/29 07:28:56;;;;;;;15.93;10.80;;;10.20;99.90;;;;;;5113662;28;20207;-65
2022/05/29 07:31:22;;;;;;;21.87;11.47;;;10.30;99.90;;;;;;5113360;28;20173;-65
2022/05/29 07:33:48;;;;;;;21.00;11.17;;;10.30;99.90;;;;;;5113488;28;20390;-65
2022/05/29 07:36:14;;;;;;;12.90;9.30;;;10.30;99.90;;;;;;5113298;28;20219;-65
2022/05/29 07:38:40;;;;;;;16.40;11.30;;;10.60;99.90;;;;;;5113162;28;20233;-65
2022/05/29 07:43:54;;;;;;;13.57;9.30;;;10.60;99.90;;;;;;5113722;28;20179;-65
2022/05/29 07:46:20;;;;;;;11.67;9.73;;;10.40;99.90;;;;;;5113375;28;20172;-64
2022/05/29 07:48:46;;;;;;;14.17;10.20;;;10.30;99.90;;;;;;5113125;28;20175;-65
2022/05/29 07:51:12;;;;;;;14.83;10.27;;;10.20;99.90;;;;;;5094943;28;20173;-65
2022/05/29 07:53:38;;;;;;;18.67;11.37;;;10.10;99.90;;;;;;5116283;28;20172;-65
2022/05/29 07:56:05;;;;;;;16.67;11.20;;;10.20;99.90;;;;;;5117129;28;20218;-65
2022/05/29 07:58:33;;;;;;;16.97;10.90;;;10.40;99.90;;;;;;5116843;28;20196;-65
2022/05/29 08:00:59;;;;;;;22.40;12.27;;;10.70;99.90;;;;;;5117634;28;20637;-65
2022/05/29 08:03:25;;;;;;;16.17;10.57;;;10.90;99.90;;;;;;5117612;28;20176;-65
2022/05/29 08:05:51;;;;;;;16.20;10.33;;;11.10;99.90;;;;;;5117060;28;20165;-65
2022/05/29 08:08:17;;;;;;;16.30;9.40;;;11.10;99.90;;;;;;5116587;28;20208;-65
2022/05/29 08:10:44;;;;;;;18.50;10.37;;;11.00;99.90;;;;;;5116641;28;20219;-64
2022/05/29 08:13:10;;;;;;;11.73;8.33;;;10.70;99.90;;;;;;5098280;28;20233;-64
2022/05/29 08:15:36;;;;;;;14.10;8.47;;;10.60;99.90;;;;;;5116326;28;20184;-64
2022/05/29 08:18:06;;;;;;;16.43;9.60;;;10.50;99.90;;;;;;5097909;28;20222;-64
2022/05/29 08:20:31;;;;;;;14.60;9.40;;;10.40;99.90;;;;;;5116275;28;20192;-64
2022/05/29 08:22:57;;;;;;;13.47;9.10;;;10.40;99.90;;;;;;5116011;28;20172;-65
2022/05/29 08:30:54;;;;;;;7.67;6.00;;;10.40;99.90;;;;;;5116620;28;20246;-65
2022/05/29 08:33:31;;;;;;;6.23;5.30;;;10.50;99.90;;;;;;5116404;28;20164;-64
2022/05/29 08:36:00;;;;;;;7.23;5.70;;;10.50;99.90;;;;;;5116338;28;20549;-65
2022/05/29 08:38:27;;;;;;;8.87;7.10;;;10.60;99.90;;;;;;5097466;28;20220;-64
2022/05/29 08:40:59;;;;;;;10.00;6.77;;;10.70;99.90;;;;;;5115899;28;20185;-65
2022/05/29 08:43:33;;;;;;;9.63;7.00;;;10.90;99.90;;;;;;5115842;28;20644;-65
2022/05/29 08:46:14;;;;;;;9.10;6.27;;;11.00;99.90;;;;;;5115807;28;20617;-65
2022/05/29 08:48:40;;;;;;;11.20;7.03;;;11.30;99.90;;;;;;5116018;28;20164;-65
2022/05/29 08:51:06;;;;;;;9.73;6.60;;;11.50;99.90;;;;;;5115955;28;20172;-64
2022/05/29 08:54:00;;;;;;;11.90;6.60;;;11.50;99.90;;;;;;5115625;28;20175;-65
2022/05/29 08:56:43;;;;;;;13.13;6.93;;;11.60;99.90;;;;;;5110511;28;20185;-62
2022/05/29 08:59:26;;;;;;;10.10;6.63;;;12.10;99.90;;;;;;5115826;28;20200;-62
2022/05/29 09:02:18;;;;;;;9.27;6.13;;;12.40;99.90;;;;;;5115824;28;20171;-62
2022/05/29 09:04:48;;;;;;;9.43;6.23;;;12.60;99.90;;;;;;5114846;28;20680;-62
2022/05/29 09:07:17;;;;;;;10.10;6.50;;;12.50;99.90;;;;;;5115916;28;20163;-65
2022/05/29 09:09:50;;;;;;;9.30;6.27;;;12.30;99.90;;;;;;5115118;28;20222;-65
2022/05/29 09:12:21;;;;;;;9.23;6.00;;;11.90;99.90;;;;;;5115579;28;20187;-65
2022/05/29 09:15:02;;;;;;;5.93;4.67;;;11.80;99.90;;;;;;5115458;28;20193;-65
2022/05/29 09:17:58;;;;;;;6.20;3.97;;;11.90;99.90;;;;;;5115779;28;20577;-65
2022/05/29 09:20:37;;;;;;;7.00;3.50;;;12.40;99.90;;;;;;5114427;28;20201;-65
2022/05/29 09:23:06;;;;;;;7.20;4.63;;;13.00;99.90;;;;;;5115372;28;20205;-65
2022/05/29 09:25:39;;;;;;;5.15;3.83;;;13.40;99.90;;;;;;5115247;28;20169;-65
2022/05/29 09:28:13;;;;;;;8.00;3.20;;;13.80;99.90;;;;;;5097017;28;20164;-65
2022/05/29 09:30:40;;;;;;;6.88;3.13;;;13.80;99.90;;;;;;5114952;28;20196;-65
2022/05/29 09:33:19;;;;;;;6.20;2.70;;;13.80;99.90;;;;;;5096746;28;20176;-63
2022/05/29 09:36:16;;;;;;;5.00;3.10;;;13.80;99.90;;;;;;5096781;28;20172;-63
2022/05/29 09:39:02;;;;;;;3.70;3.28;;;13.60;99.90;;;;;;5114669;28;20237;-63
2022/05/29 09:41:52;;;;;;;9.50;5.10;;;13.60;99.90;;;;;;5114944;28;20156;-63
2022/05/29 09:44:22;;;;;;;4.78;3.75;;;13.50;99.90;;;;;;5097253;28;20191;-65
2022/05/29 09:46:52;;;;;;;5.07;3.42;;;13.30;99.90;;;;;;5115173;28;20633;-65
2022/05/29 09:49:40;;;;;;;5.90;3.70;;;13.00;99.90;;;;;;5114851;28;20196;-65
2022/05/29 09:52:30;;;;;;;9.50;6.00;;;12.70;99.90;;;;;;5096393;28;20176;-65
2022/05/29 09:55:05;;;;;;;10.65;6.80;;;12.60;99.90;;;;;;5114264;28;20230;-65
2022/05/29 09:57:42;;;;;;;9.37;6.47;;;12.40;99.90;;;;;;5114763;28;20648;-66
2022/05/29 10:00:38;;;;;;;8.17;6.77;;;12.30;99.90;;;;;;5114432;28;20191;-65
2022/05/29 10:03:07;;;;;;;9.30;6.00;;;12.10;99.90;;;;;;5114771;28;20161;-65
2022/05/29 10:05:38;;;;;;;9.97;5.70;;;12.00;99.90;;;;;;5114278;28;20194;-63
2022/05/29 10:08:31;;;;;;;3.70;2.93;;;11.90;99.90;;;;;;5114017;28;20183;-62
2022/05/29 10:11:32;;;;;;;2.60;2.40;;;11.60;99.90;;;;;;5114278;28;20219;-65
2022/05/29 10:14:01;;;;;;;2.83;2.60;;;11.20;99.90;;;;;;5107192;28;20200;-65
2022/05/29 10:16:38;;;;;;;2.80;2.60;;;10.90;99.90;;;;;;5114121;28;20177;-65
2022/05/29 10:19:10;;;;;;;2.67;2.47;;;10.70;99.90;;;;;;5114583;28;20192;-65
2022/05/29 10:21:47;;;;;;;2.63;2.43;;;10.50;99.90;;;;;;5114367;28;20495;-65
2022/05/29 10:24:37;;;;;;;3.00;2.80;;;10.40;99.90;;;;;;5113990;28;20238;-65
2022/05/29 10:27:09;;;;;;;4.60;2.67;;;10.40;99.90;;;;;;5114384;28;20160;-65
2022/05/29 10:29:38;;;;;;;2.30;2.20;;;10.50;99.90;;;;;;5114546;28;20549;-65
2022/05/29 10:32:11;;;;;;;2.40;2.20;;;10.50;99.90;;;;;;5114007;28;20177;-65
2022/05/29 10:34:41;;;;;;;2.80;2.60;;;10.60;99.90;;;;;;5095846;28;20175;-65
2022/05/29 10:37:26;;;;;;;3.33;3.03;;;10.70;99.90;;;;;;5095739;28;20199;-65
2022/05/29 10:40:15;;;;;;;3.33;2.60;;;10.80;99.90;;;;;;5113738;28;20370;-64
2022/05/29 10:42:47;;;;;;;2.97;2.77;;;10.80;99.90;;;;;;5095817;28;20177;-64
2022/05/29 10:45:19;;;;;;;2.70;2.50;;;10.90;99.90;;;;;;5114515;28;20605;-63
2022/05/29 10:47:57;;;;;;;5.97;3.00;;;11.00;99.90;;;;;;5113999;28;20546;-64
2022/05/29 10:50:42;;;;;;;4.10;2.80;;;11.30;99.90;;;;;;5113980;28;20195;-63
2022/05/29 10:53:35;;;;;;;3.60;2.80;;;11.50;99.90;;;;;;5114319;28;20243;-63
2022/05/29 10:56:15;;;;;;;2.80;2.60;;;11.90;99.90;;;;;;5114001;28;20169;-63
2022/05/29 10:59:03;;;;;;;3.03;2.77;;;12.20;99.90;;;;;;5095492;28;20551;-63
2022/05/29 11:04:50;;;;;;;2.70;2.50;;;12.50;99.90;;;;;;5114225;28;20207;-62
2022/05/29 11:07:48;;;;;;;2.80;2.53;;;12.50;99.90;;;;;;5114055;28;20184;-63
2022/05/29 11:10:34;;;;;;;2.90;2.60;;;12.70;99.90;;;;;;5079051;28;20657;-63
2022/05/29 11:13:00;;;;;;;3.10;2.87;;;13.00;99.90;;;;;;5113771;28;20168;-64
2022/05/29 11:15:41;;;;;;;7.13;3.20;;;13.20;99.90;;;;;;5113824;28;20192;-64
2022/05/29 11:18:20;;;;;;;3.60;3.30;;;13.30;99.90;;;;;;5114166;28;20188;-64
2022/05/29 11:20:51;;;;;;;4.43;3.38;;;13.70;99.90;;;;;;5116991;28;20291;-64
2022/05/29 11:23:42;;;;;;;3.22;2.88;;;14.00;99.90;;;;;;5099260;28;20534;-64
2022/05/29 11:26:36;;;;;;;5.05;2.90;;;14.60;99.90;;;;;;5098689;28;20222;-64
2022/05/29 11:29:33;;;;;;;3.75;2.97;;;15.00;99.90;;;;;;5100693;28;20220;-64
2022/05/29 11:32:13;;;;;;;3.75;3.10;;;14.80;99.90;;;;;;5100107;28;20176;-64
2022/05/29 11:34:52;;;;;;;3.50;2.97;;;14.20;99.90;;;;;;5100218;28;20205;-65
2022/05/29 11:37:28;;;;;;;3.92;3.00;;;14.00;99.90;;;;;;5117997;28;20188;-64
2022/05/29 11:40:00;;;;;;;5.93;3.00;;;13.60;99.90;;;;;;5099217;28;20188;-65
2022/05/29 11:42:36;;;;;;;4.13;2.95;;;13.50;99.90;;;;;;5118021;28;20601;-65
2022/05/29 11:45:15;;;;;;;6.43;3.70;;;13.30;99.90;;;;;;5117778;28;20244;-64
2022/05/29 11:53:34;;;;;;;5.63;3.23;;;11.50;99.90;;;;;;5117203;28;20163;-70
2022/05/29 11:56:26;;;;;;;6.17;3.30;;;11.00;99.90;;;;;;5117616;28;20172;-65
2022/05/29 11:59:12;;;;;;;7.70;3.33;;;10.70;99.90;;;;;;5118102;28;20267;-68
2022/05/29 12:01:42;;;;;;;6.10;3.33;;;10.30;99.90;;;;;;5098837;28;20172;-67
2022/05/29 12:04:27;;;;;;;5.77;3.43;;;10.10;99.90;;;;;;5117710;28;20561;-67
2022/05/29 12:07:17;;;;;;;4.47;3.13;;;10.10;99.90;;;;;;5098854;28;20169;-65
2022/05/29 12:09:58;;;;;;;6.40;3.50;;;10.10;99.90;;;;;;5116640;28;20200;-65
2022/05/29 12:12:38;;;;;;;4.43;3.20;;;10.20;99.90;;;;;;5116787;28;20260;-64
2022/05/29 12:15:14;;;;;;;5.00;3.10;;;10.30;99.90;;;;;;5116816;28;20271;-64
2022/05/29 12:17:45;;;;;;;3.70;2.70;;;10.40;99.90;;;;;;5098392;28;20187;-64
2022/05/29 12:20:33;;;;;;;6.53;3.77;;;10.50;99.90;;;;;;5116616;28;20188;-64
2022/05/29 12:23:04;;;;;;;4.30;3.00;;;10.60;99.90;;;;;;5098245;28;20160;-64
2022/05/29 12:25:57;;;;;;;5.80;3.23;;;10.80;99.90;;;;;;5098202;28;20171;-64
2022/05/29 12:28:45;;;;;;;4.70;3.60;;;10.70;99.90;;;;;;5098125;28;20225;-66
2022/05/29 12:31:19;;;;;;;6.77;3.40;;;10.60;99.90;;;;;;5116459;28;20170;-65
2022/05/29 12:33:45;;;;;;;3.60;3.10;;;10.70;99.90;;;;;;5116283;28;20157;-65
2022/05/29 12:36:44;;;;;;;3.93;2.90;;;10.90;99.90;;;;;;5116650;28;20161;-64
2022/05/29 12:39:13;;;;;;;3.30;3.00;;;10.90;99.90;;;;;;5114774;28;20229;-65
2022/05/29 12:42:16;;;;;;;2.90;2.63;;;11.00;99.90;;;;;;5116712;28;20177;-65
2022/05/29 12:44:54;;;;;;;4.70;3.27;;;11.20;99.90;;;;;;5116858;28;20182;-66
2022/05/29 12:47:31;;;;;;;4.67;2.93;;;11.30;99.90;;;;;;5097655;28;20237;-66
2022/05/29 12:50:38;;;;;;;4.18;3.00;;;11.30;99.90;;;;;;5116168;28;20188;-66
2022/05/29 12:53:54;;;;;;;4.50;2.92;;;11.50;99.90;;;;;;5059803;28;20276;-66
2022/05/29 12:56:39;;;;;;;3.90;2.90;;;11.50;99.90;;;;;;5059821;28;20196;-67
2022/05/29 12:59:20;;;;;;;3.40;3.10;;;11.60;99.90;;;;;;5115700;28;20540;-66
2022/05/29 13:02:00;;;;;;;4.13;3.00;;;11.50;99.90;;;;;;5116454;28;20262;-66
2022/05/29 13:05:04;;;;;;;5.32;2.90;;;11.30;99.90;;;;;;5097472;28;20176;-67
2022/05/29 13:07:39;;;;;;;3.23;2.73;;;11.20;99.90;;;;;;5059385;28;20199;-66
2022/05/29 13:10:10;;;;;;;3.37;3.07;;;11.50;99.90;;;;;;5115345;28;20229;-66
2022/05/29 13:12:43;;;;;;;4.70;3.10;;;11.80;99.90;;;;;;5097407;28;20208;-67
2022/05/29 13:15:21;;;;;;;4.90;3.30;;;12.00;99.90;;;;;;5115399;28;20560;-67
2022/05/29 13:17:47;;;;;;;3.60;3.28;;;12.10;99.90;;;;;;5115639;28;20189;-67
2022/05/29 13:20:17;;;;;;;5.32;3.80;;;12.20;99.90;;;;;;5115621;28;20593;-66
2022/05/29 13:22:59;;;;;;;5.38;3.67;;;12.50;99.90;;;;;;5115427;28;20168;-67
2022/05/29 13:25:27;;;;;;;5.95;3.63;;;13.20;99.90;;;;;;5115825;28;20502;-66
2022/05/29 13:27:56;;;;;;;5.18;3.20;;;13.50;99.90;;;;;;5115684;28;20173;-67
2022/05/29 13:30:37;;;;;;;6.22;3.63;;;13.50;99.90;;;;;;5097162;28;20599;-67
2022/05/29 13:33:28;;;;;;;4.10;3.53;;;13.70;99.90;;;;;;5097772;28;20278;-77
2022/05/29 13:35:55;;;;;;;3.63;2.97;;;13.90;99.90;;;;;;5117189;28;20263;-76
2022/05/29 13:38:46;;;;;;;4.88;3.13;;;14.20;99.90;;;;;;5098013;28;20556;-75
2022/05/29 13:41:52;;;;;;;5.47;3.10;;;14.40;99.90;;;;;;5116316;28;20172;-76
2022/05/29 13:44:36;;;;;;;3.92;3.08;;;14.70;99.90;;;;;;5116363;28;20156;-67
2022/05/29 13:47:20;;;;;;;3.28;2.95;;;14.70;99.90;;;;;;5097378;28;20252;-67
2022/05/29 13:49:48;;;;;;;3.92;3.17;;;14.50;99.90;;;;;;5115450;28;20331;-67
2022/05/29 13:52:33;;;;;;;7.10;3.83;;;14.30;99.90;;;;;;5115770;28;20175;-67
2022/05/29 13:55:18;;;;;;;4.25;3.20;;;13.50;99.90;;;;;;5115309;28;20169;-67